< Typhoon 197312 1973 Season Typhoon 197314 >
Typhoon 197313 (LOUISE)
General InformationTrack Information on Google Maps || Disaster Info.ResourceGoogle EarthGE AnimationAtom FeedGeoJSON
Detalied Best Track (Time Zone = UTC)
Year Month Day Hour Lat. Long. Pressure (hPa) Wind (kt) Class Image Chart
1973 8 30 06 12.5 134.5 1008 0 2 -- Chart
1973 8 30 12 13.2 133.0 1008 0 2 -- Chart
1973 8 30 18 13.6 131.5 1008 0 2 -- Chart
1973 8 31 00 14.0 130.0 1008 0 2 -- Chart
1973 8 31 06 14.3 129.0 1008 0 2 -- Chart
1973 8 31 12 14.7 128.1 1008 0 2 -- Chart
1973 8 31 18 15.2 127.3 1008 0 2 -- Chart
1973 9 1 00 15.6 126.4 1008 0 2 -- Chart
1973 9 1 06 16.1 125.6 1008 0 2 -- Chart
1973 9 1 12 16.5 124.9 1006 0 2 -- Chart
1973 9 1 18 17.1 124.2 1006 0 2 -- Chart
1973 9 2 00 17.6 123.5 1004 0 2 -- Chart
1973 9 2 06 18.0 122.8 1004 0 2 -- Chart
1973 9 2 12 18.7 122.2 1004 0 2 -- Chart
1973 9 2 18 19.1 121.5 1000 0 2 -- Chart
1973 9 3 00 19.4 120.8 998 0 9 -- Chart
1973 9 3 06 19.4 120.3 998 0 9 -- Chart
1973 9 3 12 19.2 120.1 998 0 9 -- Chart
1973 9 3 18 19.1 119.6 996 0 9 -- Chart
1973 9 4 00 19.3 119.1 996 0 9 -- Chart
1973 9 4 06 19.5 118.6 996 0 9 -- Chart
1973 9 4 12 19.7 118.0 992 0 9 -- Chart
1973 9 4 18 20.0 117.1 990 0 9 -- Chart
1973 9 5 00 20.1 116.3 985 0 9 -- Chart
1973 9 5 06 19.9 115.5 980 0 9 -- Chart
1973 9 5 12 19.8 114.4 975 0 9 -- Chart
1973 9 5 18 19.8 113.5 975 0 9 -- Chart
1973 9 6 00 20.2 112.7 975 0 9 -- Chart
1973 9 6 06 20.3 111.6 975 0 9 -- Chart
1973 9 6 12 20.5 110.5 980 0 9 -- Chart
1973 9 6 18 20.6 109.5 985 0 9 -- Chart
1973 9 7 00 20.8 108.5 990 0 9 -- Chart
1973 9 7 06 21.0 108.0 990 0 9 -- Chart
1973 9 7 12 21.2 107.2 990 0 9 -- Chart
1973 9 7 18 21.5 106.6 995 0 9 -- Chart
1973 9 8 00 22.0 106.0 1004 0 2 -- Chart
1973 9 8 06 22.0 105.0 1006 0 2 -- Chart
Japan Meteorological Agency Best Track Data | Correction Date : 1989-06-01
< Typhoon 197312 1973 Season Typhoon 197314 >

Help